Time;durP1;ratioP1;P1;durP2;ratioP2;P2;SDS_P1;SDS_P2;PMS_P1;PMS_P2;Temp;Humidity;BMP_temperature;BMP_pressure;BME280_temperature;BME280_humidity;BME280_pressure;Samples;Min_cycle;Max_cycle;Signal;HPM_P1;HPM_P2
2022/11/08 00:02:04;;;;;;;2.40;2.20;;;11.00;99.90;;;;;;5249211;28;20253;-47
2022/11/08 00:04:38;;;;;;;3.37;1.67;;;11.20;99.90;;;;;;5252267;28;20413;-47
2022/11/08 00:15:37;;;;;;;2.67;2.20;;;11.00;99.90;;;;;;5247592;28;20434;-47
2022/11/08 00:18:08;;;;;;;2.17;2.00;;;10.90;99.90;;;;;;5242522;28;20856;-48
2022/11/08 00:20:39;;;;;;;3.23;2.33;;;10.90;99.90;;;;;;5243122;28;20559;-48
2022/11/08 00:23:09;;;;;;;2.77;1.90;;;10.90;99.90;;;;;;5245348;28;20210;-47
2022/11/08 00:25:40;;;;;;;2.53;1.87;;;10.80;99.90;;;;;;5249156;28;20263;-48
2022/11/08 00:28:11;;;;;;;3.90;2.17;;;10.80;99.90;;;;;;5252738;28;20198;-49
2022/11/08 00:30:41;;;;;;;3.57;2.20;;;10.80;99.90;;;;;;5245591;28;20692;-49
2022/11/08 00:33:14;;;;;;;7.60;2.63;;;10.70;99.90;;;;;;5239946;28;20351;-47
2022/11/08 00:35:45;;;;;;;2.60;1.73;;;10.60;99.90;;;;;;5241604;28;20170;-47
2022/11/08 00:38:16;;;;;;;3.23;2.03;;;10.60;99.90;;;;;;5241052;28;20433;-47
2022/11/08 00:40:49;;;;;;;5.23;2.60;;;10.50;99.90;;;;;;5252465;28;20213;-47
2022/11/08 00:43:20;;;;;;;3.23;1.83;;;10.50;99.90;;;;;;5239565;28;20202;-47
2022/11/08 00:45:54;;;;;;;15.27;2.30;;;10.50;99.90;;;;;;5244177;28;20863;-47
2022/11/08 00:48:24;;;;;;;5.30;1.90;;;10.40;99.90;;;;;;5246638;28;20432;-48
2022/11/08 00:51:03;;;;;;;5.80;1.97;;;10.40;99.90;;;;;;5240407;28;20430;-50
2022/11/08 00:53:36;;;;;;;5.87;2.70;;;10.40;99.90;;;;;;5247288;28;20210;-47
2022/11/08 00:56:10;;;;;;;2.30;1.90;;;10.40;99.90;;;;;;5254250;28;20932;-47
2022/11/08 00:58:42;;;;;;;3.50;1.97;;;10.40;99.90;;;;;;5240439;28;20423;-47
2022/11/08 01:01:18;;;;;;;6.33;2.40;;;10.30;99.90;;;;;;5241308;28;20484;-47
2022/11/08 01:03:49;;;;;;;10.00;2.53;;;10.30;99.90;;;;;;5245705;28;20428;-47
2022/11/08 01:06:22;;;;;;;1.77;1.63;;;10.30;99.90;;;;;;5244750;28;20459;-46
2022/11/08 01:08:54;;;;;;;3.60;2.20;;;10.30;99.90;;;;;;5240263;28;20425;-47
2022/11/08 01:11:25;;;;;;;4.80;1.97;;;10.30;99.90;;;;;;5235387;28;20468;-49
2022/11/08 01:13:58;;;;;;;7.50;2.10;;;10.30;99.90;;;;;;5244986;28;20879;-47
2022/11/08 01:16:31;;;;;;;2.57;1.93;;;10.40;99.90;;;;;;5240886;28;20418;-47
2022/11/08 01:19:02;;;;;;;11.27;2.57;;;10.40;99.90;;;;;;5235434;28;20516;-48
2022/11/08 01:21:33;;;;;;;5.23;2.30;;;10.50;99.90;;;;;;5250555;28;20472;-47
2022/11/08 01:24:04;;;;;;;5.60;2.37;;;10.50;99.90;;;;;;5248695;28;20848;-46
2022/11/08 01:26:35;;;;;;;2.00;1.83;;;10.60;99.90;;;;;;5235243;28;20200;-47
2022/11/08 01:29:06;;;;;;;13.50;2.37;;;10.60;99.90;;;;;;5231354;28;20442;-47
2022/11/08 01:31:36;;;;;;;2.83;1.90;;;10.50;99.90;;;;;;5237593;28;20581;-47
2022/11/08 01:34:07;;;;;;;6.00;2.13;;;10.40;99.90;;;;;;5244116;28;20205;-48
2022/11/08 01:36:38;;;;;;;2.00;1.90;;;10.40;99.90;;;;;;5242940;28;20650;-47
2022/11/08 01:39:09;;;;;;;4.20;1.97;;;10.40;99.90;;;;;;5233923;28;20193;-47
2022/11/08 01:41:39;;;;;;;6.80;2.60;;;10.30;99.90;;;;;;5249778;28;20197;-45
2022/11/08 01:44:18;;;;;;;7.33;2.70;;;10.30;99.90;;;;;;5246415;28;20193;-47
2022/11/08 01:46:48;;;;;;;2.00;1.73;;;10.20;99.90;;;;;;5237775;28;20178;-47
2022/11/08 01:49:36;;;;;;;4.83;2.33;;;10.20;99.90;;;;;;5232977;28;20428;-47
2022/11/08 01:52:28;;;;;;;2.20;1.30;;;10.10;99.90;;;;;;5244002;28;20230;-49
2022/11/08 01:55:24;;;;;;;5.40;3.00;;;10.20;99.90;;;;;;5242973;28;20463;-47
2022/11/08 01:58:02;;;;;;;8.13;2.23;;;10.10;99.90;;;;;;5243278;28;20435;-47
2022/11/08 02:00:35;;;;;;;1.97;1.87;;;10.20;99.90;;;;;;5249212;28;20804;-48
2022/11/08 02:03:11;;;;;;;11.20;2.10;;;10.30;99.90;;;;;;5243343;28;20464;-47
2022/11/08 02:05:42;;;;;;;2.77;1.70;;;10.40;99.90;;;;;;5241691;28;20504;-47
2022/11/08 02:08:24;;;;;;;5.90;2.63;;;10.40;99.90;;;;;;5246809;28;20520;-47
2022/11/08 02:10:56;;;;;;;3.23;2.30;;;10.50;99.90;;;;;;5244480;28;20198;-47
2022/11/08 02:13:29;;;;;;;2.03;1.43;;;10.70;99.90;;;;;;5247372;28;20586;-46
2022/11/08 02:16:00;;;;;;;5.57;2.03;;;10.70;99.90;;;;;;5236042;28;20459;-46
2022/11/08 02:18:31;;;;;;;3.00;1.60;;;10.70;99.90;;;;;;5236875;28;20432;-47
2022/11/08 02:21:16;;;;;;;2.27;2.07;;;10.80;99.90;;;;;;5233989;28;20177;-47
2022/11/08 02:24:06;;;;;;;5.70;1.97;;;10.80;99.90;;;;;;5233382;28;20425;-46
2022/11/08 02:26:38;;;;;;;6.93;3.47;;;10.80;99.90;;;;;;5237993;28;20493;-47
2022/11/08 02:29:27;;;;;;;6.20;2.40;;;10.80;99.90;;;;;;5244490;28;20435;-47
2022/11/08 02:32:00;;;;;;;6.17;1.93;;;10.80;99.90;;;;;;5244705;28;20967;-47
2022/11/08 02:34:33;;;;;;;6.57;2.90;;;10.70;99.90;;;;;;5243441;28;20423;-46
2022/11/08 02:37:05;;;;;;;1.80;1.50;;;10.60;99.90;;;;;;5232532;28;20468;-48
2022/11/08 02:39:36;;;;;;;8.27;1.80;;;10.60;99.90;;;;;;5249459;28;20432;-47
2022/11/08 02:42:12;;;;;;;2.13;1.93;;;10.60;99.90;;;;;;5236762;28;20959;-47
2022/11/08 02:44:44;;;;;;;4.47;2.10;;;10.60;99.90;;;;;;5245704;28;20650;-47
2022/11/08 02:47:15;;;;;;;3.93;2.00;;;10.60;99.90;;;;;;5255449;28;20494;-50
2022/11/08 02:49:46;;;;;;;5.30;2.33;;;10.70;99.90;;;;;;5238178;28;20492;-47
2022/11/08 02:52:16;;;;;;;4.10;2.33;;;10.60;99.90;;;;;;5229629;28;20552;-47
2022/11/08 02:54:47;;;;;;;4.10;1.80;;;10.70;99.90;;;;;;5236843;28;20174;-48
2022/11/08 02:57:18;;;;;;;2.57;1.83;;;10.60;99.90;;;;;;5238364;28;20619;-47
2022/11/08 02:59:48;;;;;;;6.60;1.90;;;10.60;99.90;;;;;;5233496;28;20185;-46
2022/11/08 03:02:19;;;;;;;4.90;1.87;;;10.50;99.90;;;;;;5244431;28;20267;-47
2022/11/08 03:04:50;;;;;;;1.60;1.50;;;10.40;99.90;;;;;;5235366;28;20713;-55
2022/11/08 03:07:21;;;;;;;4.10;2.53;;;10.30;99.90;;;;;;5243917;28;20198;-46
2022/11/08 03:09:52;;;;;;;5.87;2.00;;;10.30;99.90;;;;;;5229745;28;20440;-48
2022/11/08 03:12:22;;;;;;;4.60;2.20;;;10.30;99.90;;;;;;5247280;28;20214;-49
2022/11/08 03:14:53;;;;;;;4.83;2.30;;;10.10;99.90;;;;;;5245976;28;20183;-47
2022/11/08 03:17:24;;;;;;;1.80;1.70;;;10.10;99.90;;;;;;5241396;28;20182;-48
2022/11/08 03:19:55;;;;;;;6.50;2.50;;;10.10;99.90;;;;;;5249202;28;20186;-48
2022/11/08 03:22:26;;;;;;;8.73;2.60;;;10.10;99.90;;;;;;5240689;28;20233;-48
2022/11/08 03:24:57;;;;;;;2.20;1.80;;;10.10;99.90;;;;;;5247344;28;20466;-47
2022/11/08 03:27:28;;;;;;;3.50;1.87;;;10.30;99.90;;;;;;5246068;28;20452;-48
2022/11/08 03:29:58;;;;;;;3.37;1.90;;;10.40;99.90;;;;;;5242540;28;20189;-49
2022/11/08 03:32:29;;;;;;;5.70;1.90;;;10.50;99.90;;;;;;5251417;28;20476;-46
2022/11/08 03:35:00;;;;;;;2.97;1.93;;;10.60;99.90;;;;;;5250691;28;20234;-49
2022/11/08 03:37:31;;;;;;;2.63;2.43;;;10.60;99.90;;;;;;5246304;28;20189;-47
2022/11/08 03:40:02;;;;;;;1.97;1.60;;;10.60;99.90;;;;;;5251562;28;20190;-47
2022/11/08 03:42:33;;;;;;;6.80;2.23;;;10.60;99.90;;;;;;5253371;28;20282;-47
2022/11/08 03:45:04;;;;;;;4.83;2.30;;;10.60;99.90;;;;;;5254285;28;20436;-46
2022/11/08 03:47:39;;;;;;;1.63;1.40;;;10.60;99.90;;;;;;5245939;28;20194;-47
2022/11/08 03:50:11;;;;;;;10.17;2.03;;;10.60;99.90;;;;;;5243977;28;20412;-47
2022/11/08 03:52:43;;;;;;;5.70;2.03;;;10.50;99.90;;;;;;5246068;28;20548;-47
2022/11/08 03:55:15;;;;;;;1.63;1.53;;;10.50;99.90;;;;;;5247630;28;20485;-49
2022/11/08 03:57:47;;;;;;;2.40;1.80;;;10.40;99.90;;;;;;5253155;28;20428;-46
2022/11/08 04:00:21;;;;;;;4.63;1.63;;;10.30;99.90;;;;;;5249935;28;20429;-48
2022/11/08 04:02:53;;;;;;;3.80;2.10;;;10.20;99.90;;;;;;5238851;28;21045;-47
2022/11/08 04:05:24;;;;;;;7.60;2.70;;;10.10;99.90;;;;;;5246255;28;20785;-49
2022/11/08 04:07:55;;;;;;;3.13;1.90;;;10.00;99.90;;;;;;5252684;28;20454;-47
2022/11/08 04:10:26;;;;;;;4.90;2.10;;;9.90;99.90;;;;;;5244591;28;20183;-49
2022/11/08 04:15:56;;;;;;;8.17;2.10;;;9.80;99.90;;;;;;5238808;28;20270;-49
2022/11/08 04:21:18;;;;;;;3.37;1.80;;;9.70;99.90;;;;;;5241907;28;20497;-49
2022/11/08 04:23:51;;;;;;;3.43;2.07;;;9.70;99.90;;;;;;5237882;28;20425;-49
2022/11/08 04:26:21;;;;;;;4.20;2.87;;;9.60;99.90;;;;;;5244312;28;20471;-48
2022/11/08 04:28:55;;;;;;;5.60;2.57;;;9.60;99.90;;;;;;5239263;28;20417;-49
2022/11/08 04:31:26;;;;;;;4.90;2.10;;;9.50;99.90;;;;;;5243718;28;20714;-49
2022/11/08 04:33:56;;;;;;;7.00;2.17;;;9.50;99.90;;;;;;5239206;28;20500;-48
2022/11/08 04:36:35;;;;;;;4.67;2.33;;;9.40;99.90;;;;;;5240029;28;20252;-50
2022/11/08 04:39:06;;;;;;;3.97;2.37;;;9.40;99.90;;;;;;5241581;28;20281;-49
2022/11/08 04:41:36;;;;;;;6.00;1.93;;;9.50;99.90;;;;;;5245273;28;20524;-48
2022/11/08 04:44:08;;;;;;;3.33;2.30;;;9.60;99.90;;;;;;5247490;28;20697;-48
2022/11/08 04:46:38;;;;;;;4.80;2.50;;;9.50;99.90;;;;;;5244299;28;20186;-49
2022/11/08 04:49:09;;;;;;;7.03;2.57;;;9.60;99.90;;;;;;5235050;28;20952;-50
2022/11/08 04:51:40;;;;;;;11.23;2.70;;;9.60;99.90;;;;;;5242593;28;20241;-48
2022/11/08 04:54:10;;;;;;;2.93;2.73;;;9.50;99.90;;;;;;5245279;28;20210;-49
2022/11/08 04:56:41;;;;;;;15.77;2.67;;;9.60;99.90;;;;;;5238826;28;20529;-49
2022/11/08 04:59:12;;;;;;;2.37;2.03;;;9.50;99.90;;;;;;5236329;28;20262;-50
2022/11/08 05:01:42;;;;;;;5.47;2.70;;;9.50;99.90;;;;;;5249694;28;20666;-49
2022/11/08 05:04:13;;;;;;;4.17;2.27;;;9.50;99.90;;;;;;5239002;28;20647;-49
2022/11/08 05:06:44;;;;;;;3.87;2.30;;;9.60;99.90;;;;;;5239681;28;20183;-48
2022/11/08 05:09:14;;;;;;;4.53;2.53;;;9.70;99.90;;;;;;5241545;28;20552;-48
2022/11/08 05:11:45;;;;;;;5.03;2.60;;;9.60;99.90;;;;;;5243135;28;20590;-47
2022/11/08 05:14:16;;;;;;;4.73;2.30;;;9.50;99.90;;;;;;5229364;28;20645;-49
2022/11/08 05:16:47;;;;;;;3.87;2.50;;;9.60;99.90;;;;;;5249951;28;20495;-49
2022/11/08 05:23:22;;;;;;;5.87;3.00;;;9.50;99.90;;;;;;5234262;28;20179;-49
2022/11/08 05:24:58;;;;;;;5.33;2.50;;;9.50;99.90;;;;;;5244669;28;20805;-49
2022/11/08 05:27:28;;;;;;;6.57;2.80;;;9.40;99.90;;;;;;5245538;28;20429;-50
2022/11/08 05:29:59;;;;;;;6.50;2.70;;;9.30;99.90;;;;;;5239255;28;20189;-50
2022/11/08 05:32:30;;;;;;;4.13;2.63;;;9.30;99.90;;;;;;5232414;28;20224;-48
2022/11/08 05:35:01;;;;;;;3.07;2.50;;;9.60;99.90;;;;;;5249065;28;20425;-49
2022/11/08 05:37:35;;;;;;;6.53;3.47;;;9.50;99.90;;;;;;5246934;28;20182;-49
2022/11/08 05:40:06;;;;;;;2.97;2.70;;;9.40;99.90;;;;;;5249075;28;20632;-49
2022/11/08 05:42:37;;;;;;;17.40;2.80;;;9.50;99.90;;;;;;5238686;28;20481;-49
2022/11/08 05:45:08;;;;;;;13.03;2.60;;;9.60;99.90;;;;;;5242076;28;20522;-56
2022/11/08 05:47:44;;;;;;;8.17;2.60;;;9.50;99.90;;;;;;5246397;28;20182;-48
2022/11/08 05:50:15;;;;;;;15.10;3.53;;;9.50;99.90;;;;;;5230403;28;20504;-48
2022/11/08 05:52:46;;;;;;;7.83;2.80;;;9.40;99.90;;;;;;5242469;28;20472;-49
2022/11/08 05:55:16;;;;;;;10.07;3.53;;;9.50;99.90;;;;;;5240113;28;20186;-48
2022/11/08 05:57:47;;;;;;;34.27;6.23;;;9.60;99.90;;;;;;5246036;28;20236;-49
2022/11/08 06:00:18;;;;;;;14.53;3.70;;;9.40;99.90;;;;;;5233969;28;20300;-49
2022/11/08 06:02:49;;;;;;;6.37;2.67;;;9.50;99.90;;;;;;5227429;28;20210;-49
2022/11/08 06:05:20;;;;;;;5.83;3.33;;;9.40;99.90;;;;;;5236914;28;20437;-48
2022/11/08 06:07:53;;;;;;;10.53;3.43;;;9.40;99.90;;;;;;5250295;28;20214;-47
2022/11/08 06:10:25;;;;;;;3.10;2.90;;;9.30;99.90;;;;;;5250218;28;20282;-46
2022/11/08 06:13:01;;;;;;;8.13;3.70;;;9.30;99.90;;;;;;5249290;28;20518;-46
2022/11/08 06:15:32;;;;;;;12.83;4.23;;;9.30;99.90;;;;;;5251840;28;20444;-47
2022/11/08 06:18:04;;;;;;;13.07;4.00;;;9.20;99.90;;;;;;5252599;28;20440;-46
2022/11/08 06:20:35;;;;;;;4.63;3.00;;;9.20;99.90;;;;;;5253023;28;20704;-48
2022/11/08 06:23:05;;;;;;;7.07;4.00;;;9.20;99.90;;;;;;5246894;28;20455;-46
2022/11/08 06:25:36;;;;;;;7.10;3.87;;;9.20;99.90;;;;;;5252462;28;20432;-47
2022/11/08 06:28:07;;;;;;;8.90;3.60;;;9.20;99.90;;;;;;5252895;28;20174;-47
2022/11/08 06:30:38;;;;;;;11.57;3.87;;;9.20;99.90;;;;;;5251514;28;20500;-47
2022/11/08 06:33:09;;;;;;;13.13;4.37;;;9.10;99.90;;;;;;5248359;28;20223;-47
2022/11/08 06:35:40;;;;;;;8.67;4.77;;;9.10;99.90;;;;;;5244347;28;20178;-47
2022/11/08 06:38:11;;;;;;;7.50;4.20;;;9.30;99.90;;;;;;5250975;28;20432;-46
2022/11/08 06:40:42;;;;;;;8.00;4.30;;;9.20;99.90;;;;;;5245436;28;20210;-47
2022/11/08 06:43:13;;;;;;;17.30;4.57;;;9.30;99.90;;;;;;5252138;28;20479;-47
2022/11/08 06:45:44;;;;;;;9.07;4.10;;;9.30;99.90;;;;;;5249959;28;20190;-46
2022/11/08 06:48:15;;;;;;;10.93;5.20;;;9.30;99.90;;;;;;5250851;28;20451;-47
2022/11/08 06:50:46;;;;;;;12.50;4.57;;;9.40;99.90;;;;;;5249103;28;20255;-46
2022/11/08 06:53:16;;;;;;;10.30;4.40;;;9.40;99.90;;;;;;5239423;28;20220;-48
2022/11/08 06:55:47;;;;;;;8.40;5.17;;;9.40;99.90;;;;;;5249368;28;20181;-46
2022/11/08 06:58:18;;;;;;;9.57;5.73;;;9.50;99.90;;;;;;5242653;28;20205;-50
2022/11/08 07:00:48;;;;;;;12.40;4.13;;;9.50;99.90;;;;;;5237051;28;20246;-48
2022/11/08 07:03:19;;;;;;;21.17;4.53;;;9.40;99.90;;;;;;5243598;28;20282;-47
2022/11/08 07:05:49;;;;;;;13.93;5.40;;;9.40;99.90;;;;;;5231576;28;20189;-47
2022/11/08 07:08:20;;;;;;;27.87;10.20;;;9.50;99.90;;;;;;5250129;28;20642;-47
2022/11/08 07:10:51;;;;;;;20.33;6.57;;;9.50;99.90;;;;;;5239075;28;20198;-46
2022/11/08 07:13:22;;;;;;;8.37;4.37;;;9.50;99.90;;;;;;5250274;28;20209;-46
2022/11/08 07:15:57;;;;;;;19.60;6.37;;;9.50;99.90;;;;;;5243006;28;20186;-47
2022/11/08 07:18:28;;;;;;;18.60;4.83;;;9.70;99.90;;;;;;5244003;28;20261;-46
2022/11/08 07:21:00;;;;;;;11.07;4.97;;;9.70;99.90;;;;;;5244851;28;20527;-48
2022/11/08 07:23:31;;;;;;;8.53;4.17;;;9.70;99.90;;;;;;5242453;28;20913;-47
2022/11/08 07:26:04;;;;;;;4.70;4.30;;;9.70;99.90;;;;;;5238072;28;20509;-46
2022/11/08 07:28:35;;;;;;;11.10;4.90;;;9.80;99.90;;;;;;5248508;28;20439;-46
2022/11/08 07:31:07;;;;;;;6.47;4.40;;;9.90;99.90;;;;;;5244621;28;20435;-47
2022/11/08 07:33:37;;;;;;;7.40;4.30;;;10.10;99.90;;;;;;5248209;28;20460;-47
2022/11/08 07:36:08;;;;;;;9.27;5.23;;;10.20;99.90;;;;;;5245993;28;20508;-47
2022/11/08 07:38:39;;;;;;;13.87;4.60;;;10.10;99.90;;;;;;5243080;28;20537;-53
2022/11/08 07:41:10;;;;;;;5.63;4.27;;;10.20;99.90;;;;;;5241078;28;20214;-47
2022/11/08 07:43:41;;;;;;;12.00;4.80;;;10.30;99.90;;;;;;5237522;28;20432;-46
2022/11/08 07:46:11;;;;;;;7.40;4.60;;;10.30;99.90;;;;;;5249622;28;20214;-47
2022/11/08 07:48:42;;;;;;;19.90;6.30;;;10.30;99.90;;;;;;5247404;28;20178;-46
2022/11/08 07:51:16;;;;;;;7.77;4.57;;;10.30;99.90;;;;;;5242178;28;20276;-50
2022/11/08 07:53:49;;;;;;;4.73;3.93;;;10.40;99.90;;;;;;5248794;28;20332;-47
2022/11/08 07:56:20;;;;;;;21.27;4.63;;;10.40;99.90;;;;;;5242245;28;20561;-46
2022/11/08 07:58:52;;;;;;;7.47;4.10;;;10.40;99.90;;;;;;5247862;28;20519;-47
2022/11/08 08:01:23;;;;;;;11.93;4.60;;;10.50;99.90;;;;;;5248318;28;20213;-48
2022/11/08 08:03:57;;;;;;;18.30;4.03;;;10.50;99.90;;;;;;5246191;28;20460;-47
2022/11/08 08:06:27;;;;;;;6.83;3.93;;;10.60;99.90;;;;;;5245154;28;20487;-47
2022/11/08 08:08:58;;;;;;;17.60;4.50;;;10.70;99.90;;;;;;5244382;28;20968;-48
2022/11/08 08:11:29;;;;;;;9.13;5.00;;;10.70;99.90;;;;;;5244022;28;20678;-47
2022/11/08 08:14:00;;;;;;;4.33;3.67;;;10.70;99.90;;;;;;5241733;28;20293;-48
2022/11/08 08:16:30;;;;;;;6.43;4.00;;;10.70;99.90;;;;;;5251427;28;20179;-47
2022/11/08 08:19:01;;;;;;;4.07;3.13;;;10.80;99.90;;;;;;5252545;28;20186;-46
2022/11/08 08:21:32;;;;;;;7.70;3.37;;;10.80;99.90;;;;;;5248577;28;20565;-47
2022/11/08 08:24:04;;;;;;;15.17;4.37;;;10.90;99.90;;;;;;5239515;28;20425;-48
2022/11/08 08:26:34;;;;;;;7.23;6.20;;;11.00;99.90;;;;;;5252884;28;20179;-47
2022/11/08 08:29:05;;;;;;;20.37;12.37;;;11.20;99.90;;;;;;5249818;28;20446;-49
2022/11/08 08:31:36;;;;;;;17.77;10.47;;;11.10;99.90;;;;;;5250366;28;20202;-47
2022/11/08 08:34:06;;;;;;;30.60;13.90;;;11.10;99.90;;;;;;5245676;28;20267;-47
2022/11/08 08:36:37;;;;;;;12.17;8.37;;;11.20;99.90;;;;;;5246163;28;20171;-47
2022/11/08 08:39:08;;;;;;;20.17;9.63;;;11.30;99.90;;;;;;5246330;28;20183;-48
2022/11/08 08:41:38;;;;;;;19.50;11.20;;;11.30;99.90;;;;;;5244750;28;20199;-49
2022/11/08 08:44:10;;;;;;;19.30;10.17;;;11.50;99.90;;;;;;5239865;28;20182;-49
2022/11/08 08:46:40;;;;;;;13.20;8.23;;;11.60;99.90;;;;;;5250378;28;20193;-50
2022/11/08 08:49:11;;;;;;;9.30;6.50;;;11.60;99.90;;;;;;5248304;28;20428;-48
2022/11/08 08:51:42;;;;;;;7.93;5.20;;;11.70;99.90;;;;;;5246809;28;20278;-51
2022/11/08 08:54:14;;;;;;;13.17;4.13;;;11.80;99.90;;;;;;5249706;28;20646;-47
2022/11/08 08:56:44;;;;;;;5.93;3.63;;;11.80;99.90;;;;;;5246570;28;20236;-48
2022/11/08 08:59:15;;;;;;;8.87;3.03;;;12.00;99.90;;;;;;5249456;28;20440;-48
2022/11/08 09:01:46;;;;;;;14.90;6.80;;;12.00;99.90;;;;;;5249866;28;20194;-51
2022/11/08 09:04:17;;;;;;;4.53;4.13;;;12.10;99.90;;;;;;5245693;28;20796;-50
2022/11/08 09:06:47;;;;;;;10.93;4.40;;;12.20;99.90;;;;;;5247951;28;20184;-47
2022/11/08 09:09:18;;;;;;;3.17;2.97;;;12.30;99.90;;;;;;5250592;28;20198;-48
2022/11/08 09:11:49;;;;;;;5.93;3.23;;;12.40;99.90;;;;;;5250142;28;20210;-48
2022/11/08 09:14:19;;;;;;;2.63;2.43;;;12.50;99.90;;;;;;5238490;28;20215;-48
2022/11/08 09:16:50;;;;;;;10.17;3.03;;;12.50;99.90;;;;;;5251556;28;20186;-49
2022/11/08 09:19:21;;;;;;;9.00;2.77;;;12.60;99.90;;;;;;5250787;28;20190;-49
2022/11/08 09:21:52;;;;;;;4.10;3.10;;;12.80;99.90;;;;;;5245417;28;20621;-48
2022/11/08 09:24:23;;;;;;;5.40;3.20;;;12.80;99.90;;;;;;5247607;28;20182;-48
2022/11/08 09:26:54;;;;;;;21.50;2.90;;;12.90;99.90;;;;;;5234337;28;20201;-48
2022/11/08 09:29:24;;;;;;;12.57;3.00;;;12.90;99.90;;;;;;5248892;28;20191;-47
2022/11/08 09:31:55;;;;;;;2.73;2.53;;;12.90;99.90;;;;;;5244581;28;20968;-47
2022/11/08 09:34:29;;;;;;;8.13;2.30;;;12.90;99.90;;;;;;5238963;28;20199;-51
2022/11/08 09:37:00;;;;;;;6.03;3.30;;;13.00;99.90;;;;;;5239885;28;20457;-49
2022/11/08 09:39:30;;;;;;;7.43;3.80;;;13.00;99.90;;;;;;5246367;28;20472;-48
2022/11/08 09:42:42;;;;;;;9.53;4.17;;;13.10;99.90;;;;;;5249763;28;20241;-47
2022/11/08 09:45:33;;;;;;;5.40;3.60;;;13.20;99.90;;;;;;5245754;28;20186;-48
2022/11/08 09:48:06;;;;;;;8.13;4.50;;;13.20;99.90;;;;;;5241248;28;20448;-50
2022/11/08 09:50:41;;;;;;;7.87;3.10;;;13.40;99.90;;;;;;5247650;28;20410;-47
2022/11/08 09:53:25;;;;;;;11.70;4.33;;;13.50;99.90;;;;;;5246334;28;20468;-48
2022/11/08 09:56:00;;;;;;;9.03;5.00;;;14.00;99.90;;;;;;5231825;28;20429;-47
2022/11/08 09:58:46;;;;;;;8.93;4.53;;;14.00;99.90;;;;;;5237177;28;20440;-47
2022/11/08 10:01:17;;;;;;;3.13;2.80;;;14.00;99.90;;;;;;5252307;28;20436;-47
2022/11/08 10:03:52;;;;;;;13.43;3.30;;;14.10;99.90;;;;;;5242547;28;20437;-48
2022/11/08 10:06:23;;;;;;;5.93;3.70;;;14.30;99.90;;;;;;5239429;28;20179;-47
2022/11/08 10:09:29;;;;;;;7.77;3.10;;;14.30;99.90;;;;;;5246537;28;20942;-47
2022/11/08 10:12:24;;;;;;;11.67;3.10;;;14.40;99.90;;;;;;5254090;22;20292;-50
2022/11/08 10:15:19;;;;;;;4.40;2.90;;;14.70;99.90;;;;;;5214790;28;20730;-49
2022/11/08 10:18:04;;;;;;;2.33;2.00;;;14.60;99.90;;;;;;5222204;28;20409;-47
2022/11/08 10:20:45;;;;;;;4.47;2.17;;;14.70;99.90;;;;;;5208819;28;20421;-49
2022/11/08 10:23:24;;;;;;;19.07;2.07;;;14.70;99.90;;;;;;5209996;28;20453;-50
2022/11/08 10:26:04;;;;;;;5.47;3.43;;;14.70;99.90;;;;;;5207839;28;20762;-47
2022/11/08 10:28:43;;;;;;;6.00;2.67;;;14.70;99.90;;;;;;5226994;28;20940;-47
2022/11/08 10:31:15;;;;;;;6.00;2.50;;;14.70;99.90;;;;;;5224693;28;20505;-48
2022/11/08 10:33:52;;;;;;;4.40;2.30;;;14.70;99.90;;;;;;5216944;28;20466;-49
2022/11/08 10:36:30;;;;;;;5.50;2.33;;;14.70;99.90;;;;;;5216161;28;20419;-47
2022/11/08 10:39:11;;;;;;;4.00;2.30;;;14.90;99.90;;;;;;5209942;28;20413;-50
2022/11/08 10:42:04;;;;;;;8.40;2.50;;;15.00;99.90;;;;;;5197129;28;20434;-49
2022/11/08 10:44:35;;;;;;;10.70;2.57;;;15.10;99.90;;;;;;5219195;28;20961;-49
2022/11/08 10:47:12;;;;;;;6.53;2.60;;;15.20;99.90;;;;;;5214432;28;20514;-47
2022/11/08 10:49:43;;;;;;;8.43;2.70;;;15.30;99.90;;;;;;5218777;28;20436;-49
2022/11/08 10:53:00;;;;;;;2.60;2.10;;;15.40;99.90;;;;;;5224632;28;20960;-48
2022/11/08 10:55:37;;;;;;;1.50;1.40;;;15.40;99.90;;;;;;5221897;28;20225;-48
2022/11/08 10:58:41;;;;;;;3.13;1.73;;;15.50;99.90;;;;;;5204781;28;20483;-50
2022/11/08 11:01:22;;;;;;;3.90;1.97;;;15.60;99.90;;;;;;5211114;28;20436;-47
2022/11/08 11:03:53;;;;;;;8.60;2.10;;;15.70;99.90;;;;;;5200147;28;20452;-48
2022/11/08 11:06:26;;;;;;;1.70;1.60;;;15.70;99.90;;;;;;5226290;28;20429;-51
2022/11/08 11:08:59;;;;;;;2.30;1.67;;;15.70;99.90;;;;;;5208848;28;20260;-47
2022/11/08 11:11:30;;;;;;;3.20;1.80;;;15.70;99.90;;;;;;5224640;28;20444;-49
2022/11/08 11:14:06;;;;;;;3.00;1.90;;;15.70;99.90;;;;;;5223392;28;20469;-48
2022/11/08 11:16:46;;;;;;;3.37;2.30;;;15.70;99.90;;;;;;5207409;28;20171;-50
2022/11/08 11:19:16;;;;;;;3.07;1.70;;;15.70;99.90;;;;;;5204683;28;20529;-49
2022/11/08 11:22:04;;;;;;;6.03;1.93;;;15.70;99.90;;;;;;5204134;28;20629;-48
2022/11/08 11:24:45;;;;;;;3.17;1.30;;;15.70;99.90;;;;;;5222531;28;20553;-49
2022/11/08 11:27:30;;;;;;;5.63;2.60;;;15.70;99.90;;;;;;5206187;28;20421;-49
2022/11/08 11:30:20;;;;;;;4.27;2.17;;;15.70;99.90;;;;;;5215743;28;20446;-47
2022/11/08 11:32:58;;;;;;;3.10;2.27;;;15.70;99.90;;;;;;5208428;28;20480;-49
2022/11/08 11:35:46;;;;;;;8.97;2.70;;;15.90;99.90;;;;;;5218873;28;20478;-48
2022/11/08 11:38:34;;;;;;;3.80;1.33;;;16.10;99.90;;;;;;5221917;28;20468;-49
2022/11/08 11:41:20;;;;;;;8.13;1.70;;;15.80;99.90;;;;;;5217635;28;20856;-49
2022/11/08 11:44:19;;;;;;;3.53;1.90;;;15.80;99.90;;;;;;5201174;28;20453;-47
2022/11/08 11:46:56;;;;;;;2.13;1.90;;;15.80;99.90;;;;;;5211228;28;20452;-48
2022/11/08 11:49:30;;;;;;;2.53;2.40;;;16.00;99.90;;;;;;5217513;28;20471;-50
2022/11/08 11:52:00;;;;;;;6.23;2.73;;;16.00;99.90;;;;;;5228972;28;20456;-50
2022/11/08 11:54:33;;;;;;;55.43;24.93;;;16.00;99.90;;;;;;5224462;28;20484;-48
2022/11/08 11:57:09;;;;;;;7.03;3.53;;;16.00;99.90;;;;;;5211784;28;20217;-48
2022/11/08 12:00:20;;;;;;;4.00;1.77;;;15.80;99.90;;;;;;5223741;28;20858;-48
2022/11/08 12:03:26;;;;;;;3.23;1.30;;;15.80;99.90;;;;;;5169052;28;20478;-48
2022/11/08 12:06:04;;;;;;;7.10;1.30;;;15.70;99.90;;;;;;5205548;28;20440;-46
2022/11/08 12:08:50;;;;;;;4.70;1.67;;;15.70;99.90;;;;;;5228977;28;20440;-46
2022/11/08 12:11:36;;;;;;;2.33;1.83;;;15.90;99.90;;;;;;5228842;28;20441;-46
2022/11/08 12:14:21;;;;;;;9.60;5.93;;;16.20;99.90;;;;;;5204631;28;20457;-46
2022/11/08 12:17:17;;;;;;;5.10;1.33;;;16.20;99.90;;;;;;5212021;28;20606;-47
2022/11/08 12:19:54;;;;;;;2.87;1.40;;;16.20;99.90;;;;;;5224832;28;20555;-47
2022/11/08 12:22:27;;;;;;;5.37;1.70;;;16.20;99.90;;;;;;5223847;28;20497;-46
2022/11/08 12:25:29;;;;;;;2.13;1.50;;;16.20;99.90;;;;;;5210202;28;20942;-46
2022/11/08 12:28:38;;;;;;;8.27;4.00;;;16.20;99.90;;;;;;5203971;28;20481;-47
2022/11/08 12:31:24;;;;;;;8.90;4.20;;;16.20;99.90;;;;;;5106027;29;20449;-46
2022/11/08 12:34:28;;;;;;;4.87;2.50;;;16.20;99.90;;;;;;5124825;29;20480;-48
2022/11/08 12:37:11;;;;;;;8.57;2.90;;;16.40;99.90;;;;;;5186557;28;20488;-47
2022/11/08 12:39:47;;;;;;;8.50;3.80;;;16.40;99.90;;;;;;5220958;28;20417;-47
2022/11/08 12:43:02;;;;;;;6.73;2.50;;;16.50;99.90;;;;;;5223745;28;20436;-46
2022/11/08 12:45:49;;;;;;;3.90;1.73;;;16.40;99.90;;;;;;5207609;28;20506;-46
2022/11/08 12:48:36;;;;;;;3.30;3.00;;;16.40;99.90;;;;;;5219984;28;20761;-46
2022/11/08 12:51:20;;;;;;;6.10;3.70;;;16.40;99.90;;;;;;5217412;28;20543;-47
2022/11/08 12:54:13;;;;;;;2.70;2.23;;;16.40;99.90;;;;;;5209826;28;20549;-46
2022/11/08 12:56:47;;;;;;;1.50;1.40;;;16.50;99.90;;;;;;5197665;28;20942;-49
2022/11/08 12:59:30;;;;;;;3.93;1.90;;;16.50;99.90;;;;;;5211175;28;20433;-46
2022/11/08 13:02:03;;;;;;;6.33;2.10;;;16.50;99.90;;;;;;5220231;28;20493;-48
2022/11/08 13:04:49;;;;;;;5.43;1.80;;;16.30;99.90;;;;;;5205051;28;20868;-48
2022/11/08 13:07:41;;;;;;;3.47;2.00;;;16.30;99.90;;;;;;5197196;28;20632;-47
2022/11/08 13:10:17;;;;;;;1.77;1.43;;;16.40;99.90;;;;;;5210249;28;20425;-46
2022/11/08 13:13:19;;;;;;;4.73;1.63;;;16.30;99.90;;;;;;5209547;28;21019;-46
2022/11/08 13:16:14;;;;;;;2.23;2.10;;;16.40;99.90;;;;;;5202293;28;20425;-51
2022/11/08 13:18:50;;;;;;;1.50;1.43;;;16.40;99.90;;;;;;5207349;28;20476;-47
2022/11/08 13:21:26;;;;;;;6.30;2.30;;;16.20;99.90;;;;;;5227621;28;20421;-46
2022/11/08 13:24:00;;;;;;;2.03;1.70;;;16.20;99.90;;;;;;5210044;28;20520;-46
2022/11/08 13:26:40;;;;;;;5.40;1.63;;;16.20;99.90;;;;;;5209995;28;20472;-46
2022/11/08 13:29:17;;;;;;;3.00;2.17;;;16.00;99.90;;;;;;5225070;28;20443;-47
2022/11/08 13:31:53;;;;;;;6.57;1.73;;;16.10;99.90;;;;;;5220154;28;20453;-47
2022/11/08 13:35:01;;;;;;;1.57;1.57;;;16.00;99.90;;;;;;5202342;28;20511;-51
2022/11/08 13:37:57;;;;;;;5.60;1.57;;;15.90;99.90;;;;;;5225401;28;20479;-47
2022/11/08 13:40:59;;;;;;;1.03;1.03;;;15.80;99.90;;;;;;5209936;28;20425;-47
2022/11/08 13:43:31;;;;;;;6.00;2.60;;;15.80;99.90;;;;;;5226429;28;20448;-48
2022/11/08 13:46:26;;;;;;;9.50;1.97;;;15.80;99.90;;;;;;5208679;28;20909;-48
2022/11/08 13:48:57;;;;;;;2.00;1.43;;;15.80;99.90;;;;;;5208307;28;20535;-49